CYDF/YDF METAR and TAF weather

Enter ICAO airport designator
Station Type Date Time Source
CYDF METAR 2022/12/08 11:00 UTC NOAA

CYDF 081100Z 03007KT 15SM FEW015 SCT180 BKN220 M02/M02 A3039 RMK SC1AC2CI4 SLP296


Station Type Date Time Source
CYDF Decoded METAR 2022/12/08 11:00 UTC NOAA

Deer Lake, Nfld., Canada (CYDF) 49-13N 057-24W 22M
Dec 08, 2022 - 06:00 AM EST / 2022.12.08 1100 UTC
Wind: from the NNE (030 degrees) at 8 MPH (7 KT):0
Visibility: 15 mile(s):0
Sky conditions: mostly cloudy
Temperature: 28 F (-2 C)
Windchill: 19 F (-7 C):1
Dew Point: 28 F (-2 C)
Relative Humidity: 100%
Pressure (altimeter): 30.39 in. Hg (1029 hPa)
ob: CYDF 081100Z 03007KT 15SM FEW015 SCT180 BKN220 M02/M02 A3039 RMK SC1AC2CI4 SLP296
cycle: 11

Station Type Date Time Source
CYDF TAF 2022/12/08 08:42 UTC NOAA

TAF CYDF 080740Z 0808/0820 06010KT P6SM SCT012 BKN200
TEMPO 0808/0813 BKN012
FM081300 10010G20KT P6SM BKN025
TEMPO 0813/0820 BKN015
RMK NXT FCST BY 081400Z

Example: see airport list